sensor_id;sensor_type;location;lat;lon;timestamp;temperature;humidity
68719;DHT22;55696;52.138;5.444;2022-09-14T00:01:15;19.50;59.60
68719;DHT22;55696;52.138;5.444;2022-09-14T00:04:04;19.40;59.60
68719;DHT22;55696;52.138;5.444;2022-09-14T00:06:31;19.40;60.00
68719;DHT22;55696;52.138;5.444;2022-09-14T00:08:59;19.40;59.80
68719;DHT22;55696;52.138;5.444;2022-09-14T00:11:29;19.50;60.00
68719;DHT22;55696;52.138;5.444;2022-09-14T00:13:57;19.70;60.10
68719;DHT22;55696;52.138;5.444;2022-09-14T00:16:27;19.30;59.80
68719;DHT22;55696;52.138;5.444;2022-09-14T00:18:57;19.20;59.80
68719;DHT22;55696;52.138;5.444;2022-09-14T00:21:26;19.30;60.00
68719;DHT22;55696;52.138;5.444;2022-09-14T00:23:53;19.20;59.90
68719;DHT22;55696;52.138;5.444;2022-09-14T00:26:21;19.30;59.80
68719;DHT22;55696;52.138;5.444;2022-09-14T00:28:54;19.20;59.90
68719;DHT22;55696;52.138;5.444;2022-09-14T00:31:21;19.40;59.90
68719;DHT22;55696;52.138;5.444;2022-09-14T00:33:49;19.30;59.90
68719;DHT22;55696;52.138;5.444;2022-09-14T00:36:20;19.10;59.80
68719;DHT22;55696;52.138;5.444;2022-09-14T00:38:47;19.30;60.10
68719;DHT22;55696;52.138;5.444;2022-09-14T00:41:21;19.30;60.00
68719;DHT22;55696;52.138;5.444;2022-09-14T00:43:57;19.10;60.20
68719;DHT22;55696;52.138;5.444;2022-09-14T00:46:27;19.30;60.20
68719;DHT22;55696;52.138;5.444;2022-09-14T00:48:55;19.30;60.10
68719;DHT22;55696;52.138;5.444;2022-09-14T00:51:23;19.20;60.20
68719;DHT22;55696;52.138;5.444;2022-09-14T00:53:51;19.50;60.20
68719;DHT22;55696;52.138;5.444;2022-09-14T00:56:18;19.20;60.00
68719;DHT22;55696;52.138;5.444;2022-09-14T00:58:47;19.40;60.10
68719;DHT22;55696;52.138;5.444;2022-09-14T01:01:14;19.30;60.20
68719;DHT22;55696;52.138;5.444;2022-09-14T01:03:42;19.10;60.10
68719;DHT22;55696;52.138;5.444;2022-09-14T01:06:41;19.30;60.20
68719;DHT22;55696;52.138;5.444;2022-09-14T01:14:57;19.20;60.70
68719;DHT22;55696;52.138;5.444;2022-09-14T01:17:35;19.20;60.60
68719;DHT22;55696;52.138;5.444;2022-09-14T01:20:17;19.30;60.50
68719;DHT22;55696;52.138;5.444;2022-09-14T01:22:57;19.30;60.30
68719;DHT22;55696;52.138;5.444;2022-09-14T01:25:46;19.20;60.40
68719;DHT22;55696;52.138;5.444;2022-09-14T01:28:27;19.20;60.70
68719;DHT22;55696;52.138;5.444;2022-09-14T01:31:01;19.10;60.50
68719;DHT22;55696;52.138;5.444;2022-09-14T01:33:35;19.20;60.50
68719;DHT22;55696;52.138;5.444;2022-09-14T01:36:06;19.30;60.80
68719;DHT22;55696;52.138;5.444;2022-09-14T01:38:38;20.10;60.90
68719;DHT22;55696;52.138;5.444;2022-09-14T01:41:09;19.20;60.40
68719;DHT22;55696;52.138;5.444;2022-09-14T01:43:43;19.20;60.40
68719;DHT22;55696;52.138;5.444;2022-09-14T01:46:15;19.20;60.50
68719;DHT22;55696;52.138;5.444;2022-09-14T01:48:54;19.00;60.50
68719;DHT22;55696;52.138;5.444;2022-09-14T01:51:30;19.10;61.10
68719;DHT22;55696;52.138;5.444;2022-09-14T01:54:09;19.00;60.50
68719;DHT22;55696;52.138;5.444;2022-09-14T01:56:41;19.10;60.60
68719;DHT22;55696;52.138;5.444;2022-09-14T01:59:22;19.10;60.60
68719;DHT22;55696;52.138;5.444;2022-09-14T02:02:21;19.70;61.10
68719;DHT22;55696;52.138;5.444;2022-09-14T02:07:38;19.20;60.50
68719;DHT22;55696;52.138;5.444;2022-09-14T02:10:08;19.20;60.10
68719;DHT22;55696;52.138;5.444;2022-09-14T02:12:35;19.20;60.30
68719;DHT22;55696;52.138;5.444;2022-09-14T02:15:03;20.00;60.60
68719;DHT22;55696;52.138;5.444;2022-09-14T02:17:31;19.20;60.20
68719;DHT22;55696;52.138;5.444;2022-09-14T02:19:59;19.10;60.10
68719;DHT22;55696;52.138;5.444;2022-09-14T02:22:29;19.10;60.30
68719;DHT22;55696;52.138;5.444;2022-09-14T02:24:56;19.90;60.90
68719;DHT22;55696;52.138;5.444;2022-09-14T02:27:23;19.00;60.50
68719;DHT22;55696;52.138;5.444;2022-09-14T02:29:51;19.10;60.80
68719;DHT22;55696;52.138;5.444;2022-09-14T02:32:29;18.90;60.70
68719;DHT22;55696;52.138;5.444;2022-09-14T02:35:22;19.00;61.00
68719;DHT22;55696;52.138;5.444;2022-09-14T02:38:11;19.00;60.90
68719;DHT22;55696;52.138;5.444;2022-09-14T02:40:45;19.00;61.10
68719;DHT22;55696;52.138;5.444;2022-09-14T02:50:56;18.90;60.20
68719;DHT22;55696;52.138;5.444;2022-09-14T02:53:56;19.10;60.40
68719;DHT22;55696;52.138;5.444;2022-09-14T02:56:26;19.00;61.00
68719;DHT22;55696;52.138;5.444;2022-09-14T02:58:54;19.10;60.80
68719;DHT22;55696;52.138;5.444;2022-09-14T03:01:22;19.00;60.60
68719;DHT22;55696;52.138;5.444;2022-09-14T03:03:49;20.10;61.40
68719;DHT22;55696;52.138;5.444;2022-09-14T03:06:16;19.00;60.80
68719;DHT22;55696;52.138;5.444;2022-09-14T03:08:43;18.90;60.70
68719;DHT22;55696;52.138;5.444;2022-09-14T03:11:10;19.10;60.80
68719;DHT22;55696;52.138;5.444;2022-09-14T03:13:37;19.10;60.70
68719;DHT22;55696;52.138;5.444;2022-09-14T03:16:12;19.00;60.60
68719;DHT22;55696;52.138;5.444;2022-09-14T03:18:39;19.10;60.80
68719;DHT22;55696;52.138;5.444;2022-09-14T03:21:11;19.60;60.90
68719;DHT22;55696;52.138;5.444;2022-09-14T03:23:44;18.90;60.50
68719;DHT22;55696;52.138;5.444;2022-09-14T03:26:17;19.10;60.70
68719;DHT22;55696;52.138;5.444;2022-09-14T03:28:49;19.20;60.80
68719;DHT22;55696;52.138;5.444;2022-09-14T03:31:16;19.10;61.10
68719;DHT22;55696;52.138;5.444;2022-09-14T03:33:43;19.70;61.00
68719;DHT22;55696;52.138;5.444;2022-09-14T03:36:16;19.00;60.70
68719;DHT22;55696;52.138;5.444;2022-09-14T03:38:44;19.00;61.30
68719;DHT22;55696;52.138;5.444;2022-09-14T03:41:13;19.10;61.20
68719;DHT22;55696;52.138;5.444;2022-09-14T03:43:41;19.10;61.10
68719;DHT22;55696;52.138;5.444;2022-09-14T03:46:10;19.00;61.00
68719;DHT22;55696;52.138;5.444;2022-09-14T03:48:37;18.90;61.10
68719;DHT22;55696;52.138;5.444;2022-09-14T03:51:06;18.90;61.20
68719;DHT22;55696;52.138;5.444;2022-09-14T03:53:34;18.70;61.30
68719;DHT22;55696;52.138;5.444;2022-09-14T03:56:06;18.90;61.50
68719;DHT22;55696;52.138;5.444;2022-09-14T03:58:33;19.00;61.80
68719;DHT22;55696;52.138;5.444;2022-09-14T04:01:05;18.90;61.60
68719;DHT22;55696;52.138;5.444;2022-09-14T04:03:32;18.90;62.20
68719;DHT22;55696;52.138;5.444;2022-09-14T04:05:59;18.90;61.90
68719;DHT22;55696;52.138;5.444;2022-09-14T04:08:26;18.90;62.10
68719;DHT22;55696;52.138;5.444;2022-09-14T04:10:53;18.70;62.10
68719;DHT22;55696;52.138;5.444;2022-09-14T04:13:20;18.70;62.30
68719;DHT22;55696;52.138;5.444;2022-09-14T04:15:57;18.80;62.60
68719;DHT22;55696;52.138;5.444;2022-09-14T04:18:25;18.80;63.30
68719;DHT22;55696;52.138;5.444;2022-09-14T04:20:54;19.00;62.90
68719;DHT22;55696;52.138;5.444;2022-09-14T04:23:21;18.80;62.90
68719;DHT22;55696;52.138;5.444;2022-09-14T04:25:48;18.80;62.90
68719;DHT22;55696;52.138;5.444;2022-09-14T04:28:15;18.90;63.00
68719;DHT22;55696;52.138;5.444;2022-09-14T04:31:00;18.80;62.90
68719;DHT22;55696;52.138;5.444;2022-09-14T04:33:32;18.80;63.30
68719;DHT22;55696;52.138;5.444;2022-09-14T04:36:02;18.90;63.60
68719;DHT22;55696;52.138;5.444;2022-09-14T04:38:30;18.80;63.40
68719;DHT22;55696;52.138;5.444;2022-09-14T04:40:58;18.80;63.40
68719;DHT22;55696;52.138;5.444;2022-09-14T04:43:25;18.70;63.20
68719;DHT22;55696;52.138;5.444;2022-09-14T04:45:52;18.70;63.30
68719;DHT22;55696;52.138;5.444;2022-09-14T04:48:19;19.20;63.50
68719;DHT22;55696;52.138;5.444;2022-09-14T04:50:46;19.20;63.60
68719;DHT22;55696;52.138;5.444;2022-09-14T04:53:13;18.70;63.30
68719;DHT22;55696;52.138;5.444;2022-09-14T04:55:39;18.50;63.30
68719;DHT22;55696;52.138;5.444;2022-09-14T04:58:06;19.10;63.80
68719;DHT22;55696;52.138;5.444;2022-09-14T05:00:34;18.50;63.50
68719;DHT22;55696;52.138;5.444;2022-09-14T05:03:03;18.60;63.80
68719;DHT22;55696;52.138;5.444;2022-09-14T05:05:33;19.50;64.30
68719;DHT22;55696;52.138;5.444;2022-09-14T05:08:01;18.60;63.80
68719;DHT22;55696;52.138;5.444;2022-09-14T05:10:28;18.50;63.50
68719;DHT22;55696;52.138;5.444;2022-09-14T05:12:55;18.50;63.60
68719;DHT22;55696;52.138;5.444;2022-09-14T05:15:21;18.50;63.60
68719;DHT22;55696;52.138;5.444;2022-09-14T05:17:48;18.40;63.50
68719;DHT22;55696;52.138;5.444;2022-09-14T05:20:15;18.50;63.60
68719;DHT22;55696;52.138;5.444;2022-09-14T05:22:42;18.60;63.60
68719;DHT22;55696;52.138;5.444;2022-09-14T05:25:09;18.60;63.60
68719;DHT22;55696;52.138;5.444;2022-09-14T05:27:35;18.60;63.70
68719;DHT22;55696;52.138;5.444;2022-09-14T05:30:02;18.60;63.60
68719;DHT22;55696;52.138;5.444;2022-09-14T05:32:29;18.60;63.60
68719;DHT22;55696;52.138;5.444;2022-09-14T05:34:55;18.40;63.60
68719;DHT22;55696;52.138;5.444;2022-09-14T05:37:22;18.60;63.80
68719;DHT22;55696;52.138;5.444;2022-09-14T05:39:49;18.50;63.80
68719;DHT22;55696;52.138;5.444;2022-09-14T05:42:16;18.50;63.90
68719;DHT22;55696;52.138;5.444;2022-09-14T05:44:42;18.70;63.90
68719;DHT22;55696;52.138;5.444;2022-09-14T05:47:09;18.60;63.90
68719;DHT22;55696;52.138;5.444;2022-09-14T05:49:36;18.60;63.90
68719;DHT22;55696;52.138;5.444;2022-09-14T05:52:03;18.50;63.90
68719;DHT22;55696;52.138;5.444;2022-09-14T05:54:30;19.20;64.00
68719;DHT22;55696;52.138;5.444;2022-09-14T05:56:57;18.70;63.70
68719;DHT22;55696;52.138;5.444;2022-09-14T05:59:24;19.10;63.80
68719;DHT22;55696;52.138;5.444;2022-09-14T06:01:50;18.80;63.60
68719;DHT22;55696;52.138;5.444;2022-09-14T06:04:17;18.70;63.60
68719;DHT22;55696;52.138;5.444;2022-09-14T06:06:44;18.90;63.60
68719;DHT22;55696;52.138;5.444;2022-09-14T06:09:31;18.80;63.50
68719;DHT22;55696;52.138;5.444;2022-09-14T06:11:59;18.80;63.20
68719;DHT22;55696;52.138;5.444;2022-09-14T06:14:26;18.90;63.30
68719;DHT22;55696;52.138;5.444;2022-09-14T06:16:53;18.90;63.20
68719;DHT22;55696;52.138;5.444;2022-09-14T06:19:19;18.80;63.00
68719;DHT22;55696;52.138;5.444;2022-09-14T06:21:46;19.00;63.00
68719;DHT22;55696;52.138;5.444;2022-09-14T06:24:13;19.00;62.90
68719;DHT22;55696;52.138;5.444;2022-09-14T06:26:40;18.90;62.70
68719;DHT22;55696;52.138;5.444;2022-09-14T06:29:07;18.80;62.70
68719;DHT22;55696;52.138;5.444;2022-09-14T06:31:33;18.90;62.60
68719;DHT22;55696;52.138;5.444;2022-09-14T06:34:00;18.90;62.50
68719;DHT22;55696;52.138;5.444;2022-09-14T06:36:27;19.10;62.40
68719;DHT22;55696;52.138;5.444;2022-09-14T06:38:55;19.10;62.40
68719;DHT22;55696;52.138;5.444;2022-09-14T06:41:24;19.20;62.30
68719;DHT22;55696;52.138;5.444;2022-09-14T06:43:56;19.50;62.20
68719;DHT22;55696;52.138;5.444;2022-09-14T06:46:26;19.20;61.90
68719;DHT22;55696;52.138;5.444;2022-09-14T06:48:59;20.00;62.40
68719;DHT22;55696;52.138;5.444;2022-09-14T06:51:38;19.40;62.10
68719;DHT22;55696;52.138;5.444;2022-09-14T06:54:06;19.20;63.00
68719;DHT22;55696;52.138;5.444;2022-09-14T06:56:35;19.30;61.60
68719;DHT22;55696;52.138;5.444;2022-09-14T06:59:03;19.50;61.70
68719;DHT22;55696;52.138;5.444;2022-09-14T07:01:30;19.50;61.50
68719;DHT22;55696;52.138;5.444;2022-09-14T07:03:58;19.40;61.30
68719;DHT22;55696;52.138;5.444;2022-09-14T07:06:29;19.80;61.60
68719;DHT22;55696;52.138;5.444;2022-09-14T07:08:56;19.80;61.80
68719;DHT22;55696;52.138;5.444;2022-09-14T07:11:25;19.20;61.40
68719;DHT22;55696;52.138;5.444;2022-09-14T07:13:54;19.30;62.00
68719;DHT22;55696;52.138;5.444;2022-09-14T07:16:22;19.20;61.80
68719;DHT22;55696;52.138;5.444;2022-09-14T07:18:57;19.40;61.90
68719;DHT22;55696;52.138;5.444;2022-09-14T07:21:25;19.30;62.30
68719;DHT22;55696;52.138;5.444;2022-09-14T07:23:52;19.40;61.90
68719;DHT22;55696;52.138;5.444;2022-09-14T07:26:21;19.40;61.80
68719;DHT22;55696;52.138;5.444;2022-09-14T07:28:52;19.40;61.90
68719;DHT22;55696;52.138;5.444;2022-09-14T07:31:24;19.30;61.80
68719;DHT22;55696;52.138;5.444;2022-09-14T07:33:52;19.40;62.00
68719;DHT22;55696;52.138;5.444;2022-09-14T07:36:21;19.50;61.70
68719;DHT22;55696;52.138;5.444;2022-09-14T07:38:48;19.50;61.70
68719;DHT22;55696;52.138;5.444;2022-09-14T07:41:24;19.60;61.70
68719;DHT22;55696;52.138;5.444;2022-09-14T07:43:54;20.50;62.70
68719;DHT22;55696;52.138;5.444;2022-09-14T07:46:22;19.60;62.00
68719;DHT22;55696;52.138;5.444;2022-09-14T07:48:58;19.40;61.80
68719;DHT22;55696;52.138;5.444;2022-09-14T07:51:25;19.50;62.20
68719;DHT22;55696;52.138;5.444;2022-09-14T07:53:53;19.50;61.80
68719;DHT22;55696;52.138;5.444;2022-09-14T07:56:20;19.70;61.80
68719;DHT22;55696;52.138;5.444;2022-09-14T07:58:48;19.80;61.70
68719;DHT22;55696;52.138;5.444;2022-09-14T08:01:22;19.70;61.50
68719;DHT22;55696;52.138;5.444;2022-09-14T08:03:49;19.80;61.20
68719;DHT22;55696;52.138;5.444;2022-09-14T08:06:18;19.90;61.10
68719;DHT22;55696;52.138;5.444;2022-09-14T08:08:47;19.90;61.20
68719;DHT22;55696;52.138;5.444;2022-09-14T08:11:20;19.90;61.20
68719;DHT22;55696;52.138;5.444;2022-09-14T08:13:53;19.90;61.10
68719;DHT22;55696;52.138;5.444;2022-09-14T08:16:20;19.80;61.00
68719;DHT22;55696;52.138;5.444;2022-09-14T08:18:52;19.70;60.90
68719;DHT22;55696;52.138;5.444;2022-09-14T08:21:19;19.90;61.40
68719;DHT22;55696;52.138;5.444;2022-09-14T08:23:46;20.00;61.00
68719;DHT22;55696;52.138;5.444;2022-09-14T08:26:15;20.00;60.90
68719;DHT22;55696;52.138;5.444;2022-09-14T08:28:43;19.90;61.10
68719;DHT22;55696;52.138;5.444;2022-09-14T08:31:16;20.00;61.00
68719;DHT22;55696;52.138;5.444;2022-09-14T08:33:45;20.90;61.50
68719;DHT22;55696;52.138;5.444;2022-09-14T08:36:16;20.10;60.90
68719;DHT22;55696;52.138;5.444;2022-09-14T08:38:42;20.30;60.70
68719;DHT22;55696;52.138;5.444;2022-09-14T08:41:50;20.20;60.30
68719;DHT22;55696;52.138;5.444;2022-09-14T08:44:43;20.40;60.60
68719;DHT22;55696;52.138;5.444;2022-09-14T08:47:16;20.50;60.50
68719;DHT22;55696;52.138;5.444;2022-09-14T08:52:48;20.80;60.50
68719;DHT22;55696;52.138;5.444;2022-09-14T08:55:38;20.70;60.30
68719;DHT22;55696;52.138;5.444;2022-09-14T09:00:49;20.50;60.10
68719;DHT22;55696;52.138;5.444;2022-09-14T09:03:55;20.60;59.90
68719;DHT22;55696;52.138;5.444;2022-09-14T09:09:12;20.90;59.90
68719;DHT22;55696;52.138;5.444;2022-09-14T09:11:45;20.80;59.70
68719;DHT22;55696;52.138;5.444;2022-09-14T09:14:32;21.60;60.00
68719;DHT22;55696;52.138;5.444;2022-09-14T09:17:03;20.90;59.80
68719;DHT22;55696;52.138;5.444;2022-09-14T09:19:36;20.80;59.60
68719;DHT22;55696;52.138;5.444;2022-09-14T09:22:05;20.70;59.70
68719;DHT22;55696;52.138;5.444;2022-09-14T09:24:46;20.80;59.40
68719;DHT22;55696;52.138;5.444;2022-09-14T09:27:15;20.80;59.70
68719;DHT22;55696;52.138;5.444;2022-09-14T09:29:42;20.80;59.70
68719;DHT22;55696;52.138;5.444;2022-09-14T09:32:20;20.70;59.30
68719;DHT22;55696;52.138;5.444;2022-09-14T09:35:20;20.90;59.30
68719;DHT22;55696;52.138;5.444;2022-09-14T09:37:59;20.90;59.40
68719;DHT22;55696;52.138;5.444;2022-09-14T09:40:34;20.80;59.00
68719;DHT22;55696;52.138;5.444;2022-09-14T09:43:15;21.20;59.10
68719;DHT22;55696;52.138;5.444;2022-09-14T09:46:05;21.30;59.00
68719;DHT22;55696;52.138;5.444;2022-09-14T09:48:43;21.40;58.40
68719;DHT22;55696;52.138;5.444;2022-09-14T09:53:55;20.90;58.40
68719;DHT22;55696;52.138;5.444;2022-09-14T09:56:28;21.60;58.10
68719;DHT22;55696;52.138;5.444;2022-09-14T09:58:56;21.50;58.30
68719;DHT22;55696;52.138;5.444;2022-09-14T10:01:28;21.60;58.20
68719;DHT22;55696;52.138;5.444;2022-09-14T10:06:42;21.60;57.30
68719;DHT22;55696;52.138;5.444;2022-09-14T10:09:17;21.50;57.70
68719;DHT22;55696;52.138;5.444;2022-09-14T10:11:46;21.50;57.60
68719;DHT22;55696;52.138;5.444;2022-09-14T10:14:25;21.40;57.30
68719;DHT22;55696;52.138;5.444;2022-09-14T10:16:52;21.60;57.40
68719;DHT22;55696;52.138;5.444;2022-09-14T10:19:22;21.40;58.20
68719;DHT22;55696;52.138;5.444;2022-09-14T10:24:55;21.60;58.10
68719;DHT22;55696;52.138;5.444;2022-09-14T10:27:55;21.40;57.90
68719;DHT22;55696;52.138;5.444;2022-09-14T10:30:25;21.40;58.40
68719;DHT22;55696;52.138;5.444;2022-09-14T10:33:04;21.40;58.20
68719;DHT22;55696;52.138;5.444;2022-09-14T10:38:52;21.40;58.90
68719;DHT22;55696;52.138;5.444;2022-09-14T10:55:00;21.70;58.20
68719;DHT22;55696;52.138;5.444;2022-09-14T11:00:17;21.90;58.10
68719;DHT22;55696;52.138;5.444;2022-09-14T11:16:09;22.20;56.20
68719;DHT22;55696;52.138;5.444;2022-09-14T11:18:43;22.20;55.60
68719;DHT22;55696;52.138;5.444;2022-09-14T11:24:19;22.30;54.80
68719;DHT22;55696;52.138;5.444;2022-09-14T11:26:58;22.30;54.90
68719;DHT22;55696;52.138;5.444;2022-09-14T11:29:48;22.30;54.50
68719;DHT22;55696;52.138;5.444;2022-09-14T11:32:39;22.40;54.60
68719;DHT22;55696;52.138;5.444;2022-09-14T11:35:16;22.30;54.50
68719;DHT22;55696;52.138;5.444;2022-09-14T11:37:58;22.40;54.70
68719;DHT22;55696;52.138;5.444;2022-09-14T11:43:34;22.30;54.10
68719;DHT22;55696;52.138;5.444;2022-09-14T11:46:17;22.30;54.30
68719;DHT22;55696;52.138;5.444;2022-09-14T11:51:40;22.40;53.90
68719;DHT22;55696;52.138;5.444;2022-09-14T11:54:18;22.30;53.60
68719;DHT22;55696;52.138;5.444;2022-09-14T11:56:55;22.50;54.70
68719;DHT22;55696;52.138;5.444;2022-09-14T12:17:51;22.60;52.40
68719;DHT22;55696;52.138;5.444;2022-09-14T12:20:31;22.60;52.60
68719;DHT22;55696;52.138;5.444;2022-09-14T12:31:08;22.90;51.70
68719;DHT22;55696;52.138;5.444;2022-09-14T12:46:47;23.70;50.80
68719;DHT22;55696;52.138;5.444;2022-09-14T12:48:55;23.70;50.40
68719;DHT22;55696;52.138;5.444;2022-09-14T13:01:35;24.20;50.10
68719;DHT22;55696;52.138;5.444;2022-09-14T13:04:04;24.50;49.50
68719;DHT22;55696;52.138;5.444;2022-09-14T13:06:39;24.90;49.40
68719;DHT22;55696;52.138;5.444;2022-09-14T13:09:16;25.30;49.10
68719;DHT22;55696;52.138;5.444;2022-09-14T13:11:45;25.40;47.40
68719;DHT22;55696;52.138;5.444;2022-09-14T13:14:22;25.50;47.30
68719;DHT22;55696;52.138;5.444;2022-09-14T13:16:51;25.40;46.80
68719;DHT22;55696;52.138;5.444;2022-09-14T13:19:21;25.10;46.20
68719;DHT22;55696;52.138;5.444;2022-09-14T13:21:50;25.40;45.90
68719;DHT22;55696;52.138;5.444;2022-09-14T13:26:57;25.50;45.90
68719;DHT22;55696;52.138;5.444;2022-09-14T13:29:25;25.80;45.40
68719;DHT22;55696;52.138;5.444;2022-09-14T13:31:53;26.20;44.90
68719;DHT22;55696;52.138;5.444;2022-09-14T13:34:32;26.10;45.40
68719;DHT22;55696;52.138;5.444;2022-09-14T13:37:00;25.90;44.10
68719;DHT22;55696;52.138;5.444;2022-09-14T13:39:30;26.10;44.10
68719;DHT22;55696;52.138;5.444;2022-09-14T13:41:59;26.00;44.20
68719;DHT22;55696;52.138;5.444;2022-09-14T13:44:44;26.20;45.10
68719;DHT22;55696;52.138;5.444;2022-09-14T13:47:14;26.50;44.50
68719;DHT22;55696;52.138;5.444;2022-09-14T13:49:43;26.70;43.60
68719;DHT22;55696;52.138;5.444;2022-09-14T13:58:05;27.20;42.90
68719;DHT22;55696;52.138;5.444;2022-09-14T14:06:04;25.90;43.70
68719;DHT22;55696;52.138;5.444;2022-09-14T14:08:41;25.60;43.80
68719;DHT22;55696;52.138;5.444;2022-09-14T14:11:08;25.50;44.70
68719;DHT22;55696;52.138;5.444;2022-09-14T14:13:36;25.20;44.90
68719;DHT22;55696;52.138;5.444;2022-09-14T14:16:14;25.00;45.40
68719;DHT22;55696;52.138;5.444;2022-09-14T14:18:48;24.90;45.50
68719;DHT22;55696;52.138;5.444;2022-09-14T14:23:50;24.70;46.10
68719;DHT22;55696;52.138;5.444;2022-09-14T14:26:37;25.10;45.80
68719;DHT22;55696;52.138;5.444;2022-09-14T14:29:08;24.80;45.70
68719;DHT22;55696;52.138;5.444;2022-09-14T14:31:35;24.50;45.40
68719;DHT22;55696;52.138;5.444;2022-09-14T14:34:11;24.70;45.00
68719;DHT22;55696;52.138;5.444;2022-09-14T14:36:41;24.80;44.90
68719;DHT22;55696;52.138;5.444;2022-09-14T14:39:08;25.00;44.70
68719;DHT22;55696;52.138;5.444;2022-09-14T14:41:35;25.30;44.80
68719;DHT22;55696;52.138;5.444;2022-09-14T14:44:03;25.40;44.30
68719;DHT22;55696;52.138;5.444;2022-09-14T14:46:29;25.50;43.90
68719;DHT22;55696;52.138;5.444;2022-09-14T14:48:56;25.60;43.60
68719;DHT22;55696;52.138;5.444;2022-09-14T14:51:23;25.90;43.00
68719;DHT22;55696;52.138;5.444;2022-09-14T14:53:50;26.30;42.50
68719;DHT22;55696;52.138;5.444;2022-09-14T14:56:17;26.30;41.60
68719;DHT22;55696;52.138;5.444;2022-09-14T14:58:45;26.80;41.10
68719;DHT22;55696;52.138;5.444;2022-09-14T15:01:12;27.00;41.10
68719;DHT22;55696;52.138;5.444;2022-09-14T15:03:39;27.20;41.20
68719;DHT22;55696;52.138;5.444;2022-09-14T15:06:32;27.40;41.20
68719;DHT22;55696;52.138;5.444;2022-09-14T15:08:59;27.40;40.50
68719;DHT22;55696;52.138;5.444;2022-09-14T15:11:25;27.40;40.90
68719;DHT22;55696;52.138;5.444;2022-09-14T15:13:52;27.60;40.80
68719;DHT22;55696;52.138;5.444;2022-09-14T15:16:19;27.50;40.50
68719;DHT22;55696;52.138;5.444;2022-09-14T15:18:46;27.60;40.70
68719;DHT22;55696;52.138;5.444;2022-09-14T15:21:13;27.40;40.70
68719;DHT22;55696;52.138;5.444;2022-09-14T15:23:39;27.60;40.60
68719;DHT22;55696;52.138;5.444;2022-09-14T15:26:06;27.90;39.90
68719;DHT22;55696;52.138;5.444;2022-09-14T15:28:33;27.80;39.50
68719;DHT22;55696;52.138;5.444;2022-09-14T15:31:05;27.60;39.10
68719;DHT22;55696;52.138;5.444;2022-09-14T15:33:33;27.80;39.90
68719;DHT22;55696;52.138;5.444;2022-09-14T15:36:00;28.00;39.50
68719;DHT22;55696;52.138;5.444;2022-09-14T15:38:28;27.80;39.20
68719;DHT22;55696;52.138;5.444;2022-09-14T15:40:55;27.80;39.20
68719;DHT22;55696;52.138;5.444;2022-09-14T15:43:22;27.80;38.90
68719;DHT22;55696;52.138;5.444;2022-09-14T15:45:49;27.50;38.50
68719;DHT22;55696;52.138;5.444;2022-09-14T15:48:17;27.40;38.70
68719;DHT22;55696;52.138;5.444;2022-09-14T15:50:46;27.30;39.00
68719;DHT22;55696;52.138;5.444;2022-09-14T15:53:14;27.20;39.80
68719;DHT22;55696;52.138;5.444;2022-09-14T15:55:43;26.80;40.30
68719;DHT22;55696;52.138;5.444;2022-09-14T15:58:10;26.70;40.70
68719;DHT22;55696;52.138;5.444;2022-09-14T16:00:42;26.50;40.90
68719;DHT22;55696;52.138;5.444;2022-09-14T16:03:10;26.30;41.40
68719;DHT22;55696;52.138;5.444;2022-09-14T16:05:37;26.20;41.90
68719;DHT22;55696;52.138;5.444;2022-09-14T16:08:04;26.10;42.00
68719;DHT22;55696;52.138;5.444;2022-09-14T16:10:31;25.90;42.70
68719;DHT22;55696;52.138;5.444;2022-09-14T16:12:58;25.90;42.80
68719;DHT22;55696;52.138;5.444;2022-09-14T16:15:25;25.80;43.70
68719;DHT22;55696;52.138;5.444;2022-09-14T16:17:52;25.60;43.60
68719;DHT22;55696;52.138;5.444;2022-09-14T16:20:19;25.50;42.70
68719;DHT22;55696;52.138;5.444;2022-09-14T16:22:47;25.60;42.70
68719;DHT22;55696;52.138;5.444;2022-09-14T16:25:14;25.90;43.40
68719;DHT22;55696;52.138;5.444;2022-09-14T16:27:42;25.40;42.10
68719;DHT22;55696;52.138;5.444;2022-09-14T16:30:09;25.20;42.10
68719;DHT22;55696;52.138;5.444;2022-09-14T16:32:36;25.10;42.40
68719;DHT22;55696;52.138;5.444;2022-09-14T16:35:03;24.90;42.50
68719;DHT22;55696;52.138;5.444;2022-09-14T16:37:34;25.00;42.70
68719;DHT22;55696;52.138;5.444;2022-09-14T16:40:01;24.70;44.20
68719;DHT22;55696;52.138;5.444;2022-09-14T16:42:28;24.80;43.30
68719;DHT22;55696;52.138;5.444;2022-09-14T16:44:55;24.80;43.60
68719;DHT22;55696;52.138;5.444;2022-09-14T16:47:22;24.50;43.70
68719;DHT22;55696;52.138;5.444;2022-09-14T16:49:51;24.50;43.70
68719;DHT22;55696;52.138;5.444;2022-09-14T16:52:18;24.50;44.00
68719;DHT22;55696;52.138;5.444;2022-09-14T16:54:44;24.00;44.30
68719;DHT22;55696;52.138;5.444;2022-09-14T16:57:11;24.10;44.70
68719;DHT22;55696;52.138;5.444;2022-09-14T16:59:38;24.00;45.00
68719;DHT22;55696;52.138;5.444;2022-09-14T17:02:05;23.80;45.50
68719;DHT22;55696;52.138;5.444;2022-09-14T17:04:32;23.80;46.80
68719;DHT22;55696;52.138;5.444;2022-09-14T17:06:59;23.60;46.20
68719;DHT22;55696;52.138;5.444;2022-09-14T17:09:28;23.50;46.40
68719;DHT22;55696;52.138;5.444;2022-09-14T17:11:56;23.40;46.60
68719;DHT22;55696;52.138;5.444;2022-09-14T17:14:26;23.20;46.70
68719;DHT22;55696;52.138;5.444;2022-09-14T17:16:54;23.10;46.90
68719;DHT22;55696;52.138;5.444;2022-09-14T17:19:21;23.00;47.00
68719;DHT22;55696;52.138;5.444;2022-09-14T17:21:49;23.20;47.40
68719;DHT22;55696;52.138;5.444;2022-09-14T17:24:17;23.20;48.60
68719;DHT22;55696;52.138;5.444;2022-09-14T17:26:44;23.10;48.00
68719;DHT22;55696;52.138;5.444;2022-09-14T17:29:12;23.00;48.20
68719;DHT22;55696;52.138;5.444;2022-09-14T17:31:41;23.00;48.60
68719;DHT22;55696;52.138;5.444;2022-09-14T17:34:11;22.90;48.80
68719;DHT22;55696;52.138;5.444;2022-09-14T17:36:39;22.80;49.00
68719;DHT22;55696;52.138;5.444;2022-09-14T17:39:06;22.80;49.00
68719;DHT22;55696;52.138;5.444;2022-09-14T17:41:38;22.80;48.90
68719;DHT22;55696;52.138;5.444;2022-09-14T17:44:06;22.70;49.00
68719;DHT22;55696;52.138;5.444;2022-09-14T17:46:33;22.70;49.00
68719;DHT22;55696;52.138;5.444;2022-09-14T17:49:02;22.60;48.90
68719;DHT22;55696;52.138;5.444;2022-09-14T17:51:31;22.50;49.00
68719;DHT22;55696;52.138;5.444;2022-09-14T17:53:59;22.60;49.40
68719;DHT22;55696;52.138;5.444;2022-09-14T17:56:27;22.50;49.50
68719;DHT22;55696;52.138;5.444;2022-09-14T17:59:07;22.70;49.80
68719;DHT22;55696;52.138;5.444;2022-09-14T18:01:35;22.40;50.10
68719;DHT22;55696;52.138;5.444;2022-09-14T18:04:05;22.20;50.00
68719;DHT22;55696;52.138;5.444;2022-09-14T18:06:35;22.30;50.20
68719;DHT22;55696;52.138;5.444;2022-09-14T18:09:12;22.30;50.30
68719;DHT22;55696;52.138;5.444;2022-09-14T18:11:39;22.30;50.30
68719;DHT22;55696;52.138;5.444;2022-09-14T18:14:06;22.20;50.40